createdAt,value
2018-06-04T00:02:20.711Z,101089.30
2018-06-04T00:04:49.996Z,101086.30
2018-06-04T00:07:19.323Z,101085.61
2018-06-04T00:09:48.755Z,101083.41
2018-06-04T00:12:18.056Z,101086.62
2018-06-04T00:14:47.317Z,101084.70
2018-06-04T00:17:16.600Z,101083.12
2018-06-04T00:19:45.913Z,101073.89
2018-06-04T00:22:15.226Z,101079.27
2018-06-04T00:24:44.559Z,101071.78
2018-06-04T00:27:16.368Z,101076.94
2018-06-04T00:29:46.035Z,101084.59
2018-06-04T00:32:15.379Z,101089.97
2018-06-04T00:34:44.767Z,101095.50
2018-06-04T00:37:14.092Z,101089.10
2018-06-04T00:39:43.568Z,101089.16
2018-06-04T00:42:13.084Z,101084.75
2018-06-04T00:44:42.480Z,101081.81
2018-06-04T00:47:11.879Z,101078.88
2018-06-04T00:49:41.293Z,101075.88
2018-06-04T00:52:10.855Z,101080.08
2018-06-04T00:54:40.315Z,101071.78
2018-06-04T00:57:09.821Z,101069.28
2018-06-04T00:59:39.218Z,101065.95
2018-06-04T01:02:08.612Z,101057.74
2018-06-04T01:04:37.999Z,101065.28
2018-06-04T01:07:07.382Z,101066.66
2018-06-04T01:09:36.643Z,101061.14
2018-06-04T01:12:05.943Z,101057.50
2018-06-04T01:14:35.199Z,101054.86
2018-06-04T01:17:04.510Z,101056.06
2018-06-04T01:19:33.769Z,101055.30
2018-06-04T01:22:03.058Z,101061.14
2018-06-04T01:24:32.324Z,101067.27
2018-06-04T01:27:01.729Z,101060.37
2018-06-04T01:29:31.138Z,101052.97
2018-06-04T01:32:00.655Z,101053.48
2018-06-04T01:34:30.007Z,101049.84
2018-06-04T01:36:59.404Z,101052.97
2018-06-04T01:39:28.825Z,101049.23
2018-06-04T01:41:58.107Z,101051.81
2018-06-04T01:44:27.395Z,101044.67
2018-06-04T01:46:56.666Z,101045.23
2018-06-04T01:49:25.961Z,101040.81
2018-06-04T01:51:55.235Z,101033.89
2018-06-04T01:54:24.564Z,101022.89
2018-06-04T01:56:53.846Z,101025.59
2018-06-04T01:59:23.160Z,101020.42
2018-06-04T02:01:52.558Z,101026.40
2018-06-04T02:04:21.930Z,101021.78
2018-06-04T02:06:51.383Z,101023.42
2018-06-04T02:09:20.762Z,101025.75
2018-06-04T02:11:49.819Z,101029.43
2018-06-04T02:14:19.118Z,101023.21
2018-06-04T02:16:48.460Z,101025.42
2018-06-04T02:19:17.759Z,101022.48
2018-06-04T02:21:47.036Z,101021.29
2018-06-04T02:24:16.416Z,101018.59
2018-06-04T02:26:48.690Z,101015.20
2018-06-04T02:29:20.183Z,101022.30
2018-06-04T02:31:49.478Z,101020.22
2018-06-04T02:34:18.800Z,101015.11
2018-06-04T02:36:48.127Z,101019.27
2018-06-04T02:39:17.467Z,101011.25
2018-06-04T02:41:47.849Z,101012.02
2018-06-04T02:44:17.200Z,101008.22
2018-06-04T02:46:46.637Z,101005.38
2018-06-04T02:49:15.955Z,100998.84
2018-06-04T02:51:45.433Z,101000.73
2018-06-04T02:54:14.815Z,101004.92
2018-06-04T02:56:44.191Z,101000.00
2018-06-04T02:59:13.518Z,101005.81
2018-06-04T03:01:43.045Z,101013.55
2018-06-04T03:04:12.395Z,101014.26
2018-06-04T03:06:42.021Z,101013.31
2018-06-04T03:09:11.574Z,101011.84
2018-06-04T03:11:41.119Z,101002.13
2018-06-04T03:14:10.671Z,101003.39
2018-06-04T03:16:40.217Z,100998.89
2018-06-04T03:19:09.620Z,101004.71
2018-06-04T03:21:39.058Z,100997.61
2018-06-04T03:24:08.399Z,100996.52
2018-06-04T03:26:37.714Z,100999.45
2018-06-04T03:29:07.028Z,101000.40
2018-06-04T03:31:36.434Z,100995.90
2018-06-04T03:34:05.724Z,100996.78
2018-06-04T03:36:35.051Z,101001.64
2018-06-04T03:39:05.961Z,100999.16
2018-06-04T03:41:35.421Z,101000.93
2018-06-04T03:44:05.065Z,100998.34
2018-06-04T03:46:34.362Z,100989.38
2018-06-04T03:49:03.655Z,100990.81
2018-06-04T03:54:01.381Z,100986.50
2018-06-04T03:56:30.745Z,100984.88
2018-06-04T03:59:00.100Z,100983.63
2018-06-04T04:01:29.379Z,100976.11
2018-06-04T04:03:58.702Z,100974.33
2018-06-04T04:06:28.081Z,100975.87
2018-06-04T04:08:57.364Z,100979.80
2018-06-04T04:11:26.597Z,100978.79
2018-06-04T04:13:55.838Z,100987.42
2018-06-04T04:16:25.115Z,100987.33
2018-06-04T04:18:54.390Z,100990.64
2018-06-04T04:21:23.687Z,100987.27
2018-06-04T04:23:53.062Z,100980.27
2018-06-04T04:26:22.385Z,100986.70
2018-06-04T04:28:51.726Z,100980.25
2018-06-04T04:31:21.154Z,100984.12
2018-06-04T04:33:50.505Z,100984.06
2018-06-04T04:36:19.827Z,100986.31
2018-06-04T04:38:49.149Z,100982.00
2018-06-04T04:41:18.468Z,100983.39
2018-06-04T04:43:47.795Z,100975.08
2018-06-04T04:46:17.150Z,100973.97
2018-06-04T04:48:46.509Z,100980.28
2018-06-04T04:51:16.410Z,100980.46
2018-06-04T04:53:45.948Z,100981.42
2018-06-04T04:56:15.188Z,100977.50
2018-06-04T04:58:44.692Z,100973.98
2018-06-04T05:01:14.054Z,100969.23
2018-06-04T05:03:43.481Z,100975.23
2018-06-04T05:06:12.902Z,100979.13
2018-06-04T05:08:42.436Z,100974.97
2018-06-04T05:11:14.694Z,100976.95
2018-06-04T05:13:45.784Z,100979.36
2018-06-04T05:16:16.636Z,100976.41
2018-06-04T05:18:50.937Z,100980.91
2018-06-04T05:21:22.599Z,100979.38
2018-06-04T05:23:52.411Z,100977.83
2018-06-04T05:26:22.035Z,100981.00
2018-06-04T05:28:51.677Z,100986.98
2018-06-04T05:31:26.157Z,100978.58
2018-06-04T05:33:55.679Z,100975.65
2018-06-04T05:36:26.332Z,100976.95
2018-06-04T05:38:55.631Z,100972.21
2018-06-04T05:41:25.641Z,100984.70
2018-06-04T05:43:55.283Z,100983.11
2018-06-04T05:46:24.715Z,100979.09
2018-06-04T05:48:53.995Z,100979.86
2018-06-04T05:51:23.287Z,100971.44
2018-06-04T05:53:52.665Z,100972.87
2018-06-04T05:56:26.085Z,100972.98
2018-06-04T05:58:55.473Z,100976.52
2018-06-04T06:01:24.600Z,100974.38
2018-06-04T06:03:53.985Z,100972.07
2018-06-04T06:06:23.263Z,100963.84
2018-06-04T06:08:52.659Z,100960.64
2018-06-04T06:11:22.139Z,100952.80
2018-06-04T06:13:51.430Z,100955.42
2018-06-04T06:16:20.697Z,100956.03
2018-06-04T06:18:50.108Z,100950.80
2018-06-04T06:21:19.389Z,100951.94
2018-06-04T06:23:48.693Z,100949.16
2018-06-04T06:26:18.071Z,100948.49
2018-06-04T06:28:47.468Z,100952.66
2018-06-04T06:31:16.772Z,100945.91
2018-06-04T06:33:45.824Z,100950.44
2018-06-04T06:36:15.314Z,100950.70
2018-06-04T06:38:44.687Z,100946.05
2018-06-04T06:41:14.144Z,100936.16
2018-06-04T06:43:43.496Z,100939.19
2018-06-04T06:46:13.045Z,100937.45
2018-06-04T06:48:42.483Z,100943.66
2018-06-04T06:51:11.986Z,100937.94
2018-06-04T06:53:41.422Z,100935.69
2018-06-04T06:56:10.831Z,100934.88
2018-06-04T06:58:40.187Z,100931.36
2018-06-04T07:01:09.698Z,100933.82
2018-06-04T07:03:39.148Z,100931.09
2018-06-04T07:06:08.507Z,100934.09
2018-06-04T07:08:37.832Z,100924.85
2018-06-04T07:11:07.139Z,100930.31
2018-06-04T07:13:36.425Z,100927.55
2018-06-04T07:16:05.763Z,100924.54
2018-06-04T07:18:35.190Z,100926.31
2018-06-04T07:21:04.703Z,100924.47
2018-06-04T07:23:33.760Z,100921.97
2018-06-04T07:26:03.147Z,100926.55
2018-06-04T07:28:32.495Z,100920.34
2018-06-04T07:31:01.869Z,100920.80
2018-06-04T07:33:31.174Z,100924.53
2018-06-04T07:36:12.022Z,100932.67
2018-06-04T07:38:41.803Z,100924.47
2018-06-04T07:41:11.339Z,100925.42
2018-06-04T07:43:41.220Z,100924.00
2018-06-04T07:46:10.830Z,100927.26
2018-06-04T07:48:40.277Z,100925.67
2018-06-04T07:51:09.727Z,100926.00
2018-06-04T07:53:39.196Z,100928.46
2018-06-04T07:56:08.644Z,100919.12
2018-06-04T07:58:37.947Z,100917.71
2018-06-04T08:01:07.312Z,100911.18
2018-06-04T08:03:36.701Z,100908.67
2018-06-04T08:06:06.075Z,100910.20
2018-06-04T08:08:35.924Z,100902.17
2018-06-04T08:11:05.691Z,100901.83
2018-06-04T08:13:35.590Z,100901.34
2018-06-04T08:16:05.307Z,100893.30
2018-06-04T08:18:34.801Z,100895.14
2018-06-04T08:21:04.296Z,100894.96
2018-06-04T08:23:33.756Z,100892.98
2018-06-04T08:26:03.150Z,100879.50
2018-06-04T08:28:32.587Z,100888.67
2018-06-04T08:31:01.919Z,100892.28
2018-06-04T08:33:31.374Z,100891.86
2018-06-04T08:36:00.713Z,100886.50
2018-06-04T08:38:30.075Z,100886.50
2018-06-04T08:40:59.389Z,100878.64
2018-06-04T08:43:28.792Z,100880.66
2018-06-04T08:45:58.249Z,100883.53
2018-06-04T08:48:27.510Z,100890.52
2018-06-04T08:50:56.979Z,100882.81
2018-06-04T08:53:26.192Z,100881.88
2018-06-04T08:55:55.515Z,100885.12
2018-06-04T08:58:24.898Z,100871.40
2018-06-04T09:00:54.270Z,100879.99
2018-06-04T09:03:23.599Z,100866.91
2018-06-04T09:05:53.016Z,100868.09
2018-06-04T09:08:22.353Z,100869.42
2018-06-04T09:10:51.807Z,100870.92
2018-06-04T09:13:21.192Z,100866.70
2018-06-04T09:15:50.641Z,100869.02
2018-06-04T09:18:19.973Z,100871.59
2018-06-04T09:20:49.319Z,100861.34
2018-06-04T09:23:18.655Z,100863.11
2018-06-04T09:25:48.021Z,100861.23
2018-06-04T09:28:17.345Z,100859.61
2018-06-04T09:30:46.638Z,100859.71
2018-06-04T09:33:16.093Z,100859.19
2018-06-04T09:35:45.405Z,100858.03
2018-06-04T09:38:14.516Z,100862.12
2018-06-04T09:40:43.633Z,100869.25
2018-06-04T09:43:12.915Z,100865.53
2018-06-04T09:45:42.356Z,100866.12
2018-06-04T09:48:11.647Z,100864.08
2018-06-04T09:50:41.058Z,100861.20
2018-06-04T09:53:10.402Z,100856.63
2018-06-04T09:55:39.707Z,100857.98
2018-06-04T09:58:08.835Z,100856.66
2018-06-04T10:00:39.374Z,100853.66
2018-06-04T10:03:08.817Z,100851.50
2018-06-04T10:05:38.484Z,100851.86
2018-06-04T10:08:07.850Z,100846.48
2018-06-04T10:10:37.318Z,100854.87
2018-06-04T10:13:06.823Z,100853.44
2018-06-04T10:15:36.332Z,100852.91
2018-06-04T10:18:05.958Z,100848.36
2018-06-04T10:20:35.507Z,100848.31
2018-06-04T10:23:04.929Z,100851.17
2018-06-04T10:25:34.270Z,100842.91
2018-06-04T10:28:03.698Z,100845.76
2018-06-04T10:30:33.268Z,100840.59
2018-06-04T10:33:02.728Z,100843.04
2018-06-04T10:35:32.175Z,100849.88
2018-06-04T10:38:01.574Z,100848.25
2018-06-04T10:40:31.211Z,100844.72
2018-06-04T10:43:00.536Z,100843.36
2018-06-04T10:45:29.905Z,100838.13
2018-06-04T10:47:58.979Z,100836.53
2018-06-04T10:50:28.825Z,100843.13
2018-06-04T10:52:58.259Z,100842.60
2018-06-04T10:55:27.683Z,100845.05
2018-06-04T10:57:56.992Z,100840.06
2018-06-04T11:00:26.399Z,100844.54
2018-06-04T11:02:55.699Z,100843.39
2018-06-04T11:05:25.010Z,100847.69
2018-06-04T11:07:54.347Z,100844.97
2018-06-04T11:10:23.689Z,100843.34
2018-06-04T11:12:53.000Z,100841.77
2018-06-04T11:15:22.287Z,100840.03
2018-06-04T11:17:51.602Z,100834.67
2018-06-04T11:20:21.016Z,100838.95
2018-06-04T11:22:50.348Z,100835.55
2018-06-04T11:25:19.616Z,100827.63
2018-06-04T11:27:48.960Z,100825.72
2018-06-04T11:30:18.300Z,100818.09
2018-06-04T11:32:47.647Z,100827.64
2018-06-04T11:35:17.035Z,100815.36
2018-06-04T11:37:47.345Z,100806.72
2018-06-04T11:40:16.673Z,100811.69
2018-06-04T11:42:46.032Z,100804.83
2018-06-04T11:45:15.431Z,100804.81
2018-06-04T11:47:44.771Z,100800.17
2018-06-04T11:50:14.156Z,100802.86
2018-06-04T11:52:43.643Z,100798.94
2018-06-04T11:55:12.954Z,100793.14
2018-06-04T11:57:42.305Z,100802.30
2018-06-04T12:00:11.687Z,100800.83
2018-06-04T12:02:41.004Z,100795.03
2018-06-04T12:05:10.391Z,100796.47
2018-06-04T12:07:39.850Z,100796.91
2018-06-04T12:10:09.458Z,100800.55
2018-06-04T12:12:38.915Z,100793.13
2018-06-04T12:15:08.292Z,100797.41
2018-06-04T12:17:37.571Z,100797.95
2018-06-04T12:20:07.556Z,100793.90
2018-06-04T12:22:37.030Z,100785.06
2018-06-04T12:25:06.472Z,100782.08
2018-06-04T12:27:35.875Z,100778.38
2018-06-04T12:30:05.826Z,100776.89
2018-06-04T12:32:35.295Z,100782.29
2018-06-04T12:35:04.819Z,100785.41
2018-06-04T12:37:34.189Z,100777.59
2018-06-04T12:40:03.898Z,100786.03
2018-06-04T12:42:33.318Z,100783.08
2018-06-04T12:45:02.866Z,100785.17
2018-06-04T12:47:32.211Z,100782.63
2018-06-04T12:50:01.670Z,100782.81
2018-06-04T12:52:31.049Z,100789.70
2018-06-04T12:55:00.324Z,100780.63
2018-06-04T12:57:29.710Z,100781.25
2018-06-04T12:59:59.021Z,100776.73
2018-06-04T13:02:28.310Z,100776.57
2018-06-04T13:04:57.737Z,100785.78
2018-06-04T13:07:27.169Z,100777.84
2018-06-04T13:09:56.589Z,100781.09
2018-06-04T13:12:25.881Z,100777.03
2018-06-04T13:14:55.179Z,100763.50
2018-06-04T13:17:24.636Z,100755.03
2018-06-04T13:19:54.009Z,100756.84
2018-06-04T13:22:23.393Z,100755.86
2018-06-04T13:24:52.792Z,100750.50
2018-06-04T13:27:22.128Z,100753.51
2018-06-04T13:29:51.391Z,100746.80
2018-06-04T13:32:20.700Z,100755.00
2018-06-04T13:34:49.998Z,100747.00
2018-06-04T13:37:19.292Z,100741.59
2018-06-04T13:39:48.571Z,100736.91
2018-06-04T13:42:18.086Z,100738.69
2018-06-04T13:44:47.415Z,100740.81
2018-06-04T13:47:16.822Z,100740.36
2018-06-04T13:49:46.234Z,100735.35
2018-06-04T13:52:15.519Z,100737.80
2018-06-04T13:54:47.686Z,100730.98
2018-06-04T14:01:28.400Z,100732.20
2018-06-04T14:03:57.712Z,100743.55
2018-06-04T14:06:27.110Z,100741.96
2018-06-04T14:08:56.410Z,100740.61
2018-06-04T14:11:25.739Z,100735.39
2018-06-04T14:13:55.073Z,100735.19
2018-06-04T14:16:24.458Z,100727.33
2018-06-04T14:18:53.741Z,100730.05
2018-06-04T14:21:23.084Z,100725.36
2018-06-04T14:23:52.389Z,100725.75
2018-06-04T14:26:21.704Z,100727.72
2018-06-04T14:28:50.978Z,100720.89
2018-06-04T14:31:20.385Z,100717.59
2018-06-04T14:33:49.769Z,100714.80
2018-06-04T14:36:19.091Z,100714.10
2018-06-04T14:38:48.533Z,100712.83
2018-06-04T14:41:17.942Z,100705.12
2018-06-04T14:43:47.265Z,100696.91
2018-06-04T14:46:16.632Z,100703.39
2018-06-04T14:48:47.196Z,100701.19
2018-06-04T14:51:16.458Z,100700.03
2018-06-04T14:53:45.778Z,100695.33
2018-06-04T14:56:17.412Z,100694.41
2018-06-04T14:58:47.856Z,100704.41
2018-06-04T15:01:22.336Z,100702.61
2018-06-04T15:03:51.816Z,100702.07
2018-06-04T15:06:21.142Z,100701.69
2018-06-04T15:08:53.708Z,100699.22
2018-06-04T15:11:25.961Z,100703.83
2018-06-04T15:13:57.053Z,100699.38
2018-06-04T15:16:26.609Z,100701.78
2018-06-04T15:18:58.382Z,100701.34
2018-06-04T15:21:28.222Z,100694.11
2018-06-04T15:23:58.950Z,100692.38
2018-06-04T15:26:28.840Z,100688.67
2018-06-04T15:28:58.935Z,100687.00
2018-06-04T15:31:28.591Z,100687.55
2018-06-04T15:33:58.406Z,100694.73
2018-06-04T15:36:28.629Z,100697.95
2018-06-04T15:38:59.032Z,100685.23
2018-06-04T15:41:28.378Z,100681.13
2018-06-04T15:43:57.840Z,100680.88
2018-06-04T15:46:28.224Z,100677.32
2018-06-04T15:49:00.335Z,100670.48
2018-06-04T15:51:29.598Z,100682.62
2018-06-04T15:53:59.187Z,100669.14
2018-06-04T15:56:29.825Z,100673.64
2018-06-04T15:59:03.016Z,100672.75
2018-06-04T16:01:33.311Z,100666.73
2018-06-04T16:04:04.890Z,100658.11
2018-06-04T16:06:36.794Z,100661.50
2018-06-04T16:09:12.496Z,100660.01
2018-06-04T16:11:44.076Z,100657.53
2018-06-04T16:14:17.682Z,100660.94
2018-06-04T16:16:48.284Z,100653.88
2018-06-04T16:19:18.671Z,100657.66
2018-06-04T16:21:48.557Z,100652.60
2018-06-04T16:24:18.635Z,100651.06
2018-06-04T16:26:49.735Z,100655.29
2018-06-04T16:29:18.987Z,100656.36
2018-06-04T16:31:48.686Z,100653.22
2018-06-04T16:34:19.483Z,100648.73
2018-06-04T16:36:54.623Z,100654.23
2018-06-04T16:39:25.247Z,100640.05
2018-06-04T16:41:57.341Z,100647.68
2018-06-04T16:44:33.099Z,100642.14
2018-06-04T16:47:04.112Z,100641.28
2018-06-04T16:49:36.668Z,100645.77
2018-06-04T16:52:11.313Z,100642.33
2018-06-04T16:54:46.017Z,100640.59
2018-06-04T16:57:18.238Z,100639.42
2018-06-04T16:59:47.595Z,100641.45
2018-06-04T17:02:16.949Z,100640.66
2018-06-04T17:04:46.257Z,100646.20
2018-06-04T17:07:15.768Z,100633.30
2018-06-04T17:09:45.078Z,100642.79
2018-06-04T17:12:18.087Z,100641.66
2018-06-04T17:14:48.860Z,100631.84
2018-06-04T17:17:19.107Z,100631.47
2018-06-04T17:19:48.966Z,100631.28
2018-06-04T17:22:19.508Z,100632.19
2018-06-04T17:24:49.741Z,100638.41
2018-06-04T17:27:21.776Z,100635.64
2018-06-04T17:30:01.583Z,100631.55
2018-06-04T17:32:39.221Z,100624.97
2018-06-04T17:35:08.717Z,100627.66
2018-06-04T17:37:38.775Z,100615.45
2018-06-04T17:40:08.425Z,100626.86
2018-06-04T17:42:39.086Z,100624.80
2018-06-04T17:45:17.783Z,100625.50
2018-06-04T17:47:48.413Z,100625.77
2018-06-04T17:50:18.806Z,100640.07
2018-06-04T17:52:48.272Z,100632.72
2018-06-04T17:55:17.769Z,100633.67
2018-06-04T17:57:47.361Z,100639.73
2018-06-04T18:00:18.788Z,100646.38
2018-06-04T18:02:49.121Z,100642.93
2018-06-04T18:05:18.460Z,100640.22
2018-06-04T18:07:47.844Z,100654.42
2018-06-04T18:10:17.194Z,100650.31
2018-06-04T18:12:46.684Z,100643.81
2018-06-04T18:15:16.169Z,100658.29
2018-06-04T18:17:49.722Z,100656.93
2018-06-04T18:20:19.093Z,100665.61
2018-06-04T18:22:48.678Z,100660.94
2018-06-04T18:25:18.122Z,100665.06
2018-06-04T18:27:47.556Z,100665.14
2018-06-04T18:30:20.364Z,100665.45
2018-06-04T18:32:50.358Z,100666.58
2018-06-04T18:35:19.828Z,100662.50
2018-06-04T18:37:49.485Z,100669.77
2018-06-04T18:40:18.976Z,100672.55
2018-06-04T18:42:48.724Z,100670.65
2018-06-04T18:45:18.265Z,100676.44
2018-06-04T18:47:51.434Z,100680.95
2018-06-04T18:50:21.587Z,100687.73
2018-06-04T18:52:51.617Z,100682.33
2018-06-04T18:55:21.122Z,100687.64
2018-06-04T18:57:50.829Z,100687.53
2018-06-04T19:00:20.953Z,100683.59
2018-06-04T19:02:50.708Z,100681.31
2018-06-04T19:05:24.316Z,100689.04
2018-06-04T19:07:53.929Z,100685.91
2018-06-04T19:10:23.609Z,100684.37
2018-06-04T19:12:53.126Z,100685.80
2018-06-04T19:15:22.859Z,100690.11
2018-06-04T19:17:52.308Z,100692.89
2018-06-04T19:20:21.991Z,100697.74
2018-06-04T19:22:51.406Z,100705.70
2018-06-04T19:25:20.864Z,100704.87
2018-06-04T19:27:50.341Z,100709.67
2018-06-04T19:30:19.647Z,100709.69
2018-06-04T19:32:49.010Z,100715.60
2018-06-04T19:35:18.119Z,100719.31
2018-06-04T19:37:47.125Z,100722.33
2018-06-04T19:40:16.931Z,100721.27
2018-06-04T19:42:46.267Z,100729.22
2018-06-04T19:45:15.569Z,100725.23
2018-06-04T19:47:44.898Z,100735.49
2018-06-04T19:50:14.521Z,100742.11
2018-06-04T19:52:43.853Z,100745.13
2018-06-04T19:55:13.150Z,100746.08
2018-06-04T19:57:42.256Z,100752.94
2018-06-04T20:00:11.634Z,100755.55
2018-06-04T20:02:40.985Z,100761.27
2018-06-04T20:05:10.038Z,100762.97
2018-06-04T20:07:39.372Z,100764.58
2018-06-04T20:10:08.789Z,100766.02
2018-06-04T20:12:39.490Z,100775.84
2018-06-04T20:15:11.460Z,100770.13
2018-06-04T20:17:41.040Z,100772.64
2018-06-04T20:20:10.694Z,100778.84
2018-06-04T20:22:40.224Z,100778.37
2018-06-04T20:25:09.597Z,100780.11
2018-06-04T20:27:39.090Z,100783.02
2018-06-04T20:30:09.205Z,100782.70
2018-06-04T20:32:38.679Z,100785.56
2018-06-04T20:35:08.116Z,100783.08
2018-06-04T20:37:40.444Z,100785.69
2018-06-04T20:40:11.525Z,100790.92
2018-06-04T20:42:46.319Z,100785.16
2018-06-04T20:45:16.960Z,100789.18
2018-06-04T20:47:47.989Z,100787.52
2018-06-04T20:50:17.273Z,100791.21
2018-06-04T20:52:53.226Z,100801.73
2018-06-04T20:55:24.018Z,100808.91
2018-06-04T20:57:54.597Z,100806.91
2018-06-04T21:00:25.432Z,100812.70
2018-06-04T21:02:56.744Z,100808.00
2018-06-04T21:05:26.635Z,100807.58
2018-06-04T21:07:56.185Z,100807.63
2018-06-04T21:10:26.056Z,100808.55
2018-06-04T21:12:55.413Z,100815.54
2018-06-04T21:15:25.843Z,100816.05
2018-06-04T21:17:58.385Z,100816.87
2018-06-04T21:20:27.928Z,100821.80
2018-06-04T21:22:57.946Z,100820.67
2018-06-04T21:25:27.384Z,100820.41
2018-06-04T21:27:56.792Z,100823.39
2018-06-04T21:30:25.885Z,100821.91
2018-06-04T21:32:54.936Z,100817.20
2018-06-04T21:35:24.225Z,100824.00
2018-06-04T21:38:00.223Z,100827.80
2018-06-04T21:40:30.177Z,100825.58
2018-06-04T21:42:59.457Z,100828.88
2018-06-04T21:45:29.513Z,100835.02
2018-06-04T21:47:59.088Z,100835.89
2018-06-04T21:50:28.444Z,100840.31
2018-06-04T21:52:58.414Z,100843.34
2018-06-04T21:55:28.652Z,100849.75
2018-06-04T21:57:58.832Z,100841.55
2018-06-04T22:00:28.184Z,100846.75
2018-06-04T22:02:57.638Z,100841.77
2018-06-04T22:05:26.965Z,100850.27
2018-06-04T22:07:56.345Z,100848.57
2018-06-04T22:10:25.702Z,100854.39
2018-06-04T22:12:55.105Z,100854.58
2018-06-04T22:15:24.403Z,100855.08
2018-06-04T22:17:53.713Z,100852.06
2018-06-04T22:20:23.118Z,100856.42
2018-06-04T22:22:52.487Z,100855.21
2018-06-04T22:25:21.749Z,100856.15
2018-06-04T22:27:51.075Z,100859.47
2018-06-04T22:30:20.408Z,100847.95
2018-06-04T22:32:49.673Z,100852.30
2018-06-04T22:35:19.023Z,100851.84
2018-06-04T22:37:48.259Z,100848.34
2018-06-04T22:40:17.531Z,100864.64
2018-06-04T22:42:46.822Z,100864.85
2018-06-04T22:45:16.214Z,100867.84
2018-06-04T22:47:45.638Z,100868.13
2018-06-04T22:50:14.897Z,100864.41
2018-06-04T22:52:44.161Z,100869.40
2018-06-04T22:55:13.492Z,100862.80
2018-06-04T22:57:42.762Z,100862.32
2018-06-04T23:00:22.508Z,100865.16
2018-06-04T23:02:51.881Z,100860.49
2018-06-04T23:05:21.188Z,100868.33
2018-06-04T23:07:50.443Z,100867.49
2018-06-04T23:10:19.767Z,100862.56
2018-06-04T23:12:49.117Z,100861.33
2018-06-04T23:15:18.475Z,100868.33
2018-06-04T23:17:47.879Z,100869.14
2018-06-04T23:20:17.454Z,100866.45
2018-06-04T23:22:46.740Z,100858.89
2018-06-04T23:25:16.037Z,100861.00
2018-06-04T23:27:45.322Z,100858.75
2018-06-04T23:30:14.612Z,100861.55
2018-06-04T23:32:43.971Z,100862.77
2018-06-04T23:35:13.355Z,100859.81
2018-06-04T23:37:42.817Z,100859.81
2018-06-04T23:40:12.179Z,100854.75
2018-06-04T23:42:41.484Z,100854.67
2018-06-04T23:45:10.731Z,100852.31
2018-06-04T23:47:40.065Z,100859.22
2018-06-04T23:50:09.413Z,100856.00
2018-06-04T23:52:38.737Z,100855.44
2018-06-04T23:55:08.123Z,100855.14
2018-06-04T23:57:44.014Z,100846.80
